Flugplatz Altenburg-Nobitz

Bericht für EDAC

vom 17.09. um 14:20 UTC

Wind 13 kt aus 270° in Böen 24 kt

Sichtweite 10 km oder mehr

aufgelockert bewölkt in 4600 ft

aufgebrochene Bewölkung in 6700 ft

Temperatur 17.0°C

Taupunkt 7.0°C

Luftfeuchtigkeit 52%

Luftdruck 1015 hPa

EDAC 171420Z 27013G24KT 9999 SCT046 BKN067 17/07 Q1015

Prognose für EDAC

vom 17.09. um 00:00 UTC

Zwischen 00:00 UTC und 00:00 UTC

Wind 15 kt aus 270° in Böen 25 kt

Sichtweite 10 km oder mehr

aufgelockert bewölkt in 4000 ft


Zwischen 00:00 UTC und 00:00 UTC zeitweise

Wind 20 kt aus 290° in Böen 30 kt

Regenschauer

aufgelockert bewölkt in 3000 ft


Zwischen 00:00 und 00:00 UTC übergehend zu

Wind 10 kt aus 290°

Sichtweite 10 km oder mehr

aufgelockert bewölkt in 4000 ft

TAF EDAC 171400Z 1715/1724 27015G25KT 9999 SCT040 TEMPO 1715/1717 29020G30KT SHRA SCT030CB BECMG 1717/1719 29010KT
Impressum